sensor_id;sensor_type;location;lat;lon;timestamp;temperature;humidity
21425;DHT22;10873;51.132;16.848;2023-07-13T00:00:52;29.10;66.60
21425;DHT22;10873;51.132;16.848;2023-07-13T00:03:40;29.10;66.70
21425;DHT22;10873;51.132;16.848;2023-07-13T00:06:07;29.10;66.70
21425;DHT22;10873;51.132;16.848;2023-07-13T00:08:34;29.10;66.70
21425;DHT22;10873;51.132;16.848;2023-07-13T00:11:00;29.10;66.70
21425;DHT22;10873;51.132;16.848;2023-07-13T00:13:26;29.10;66.70
21425;DHT22;10873;51.132;16.848;2023-07-13T00:15:52;29.10;66.70
21425;DHT22;10873;51.132;16.848;2023-07-13T00:18:19;29.10;66.70
21425;DHT22;10873;51.132;16.848;2023-07-13T00:20:47;29.10;66.70
21425;DHT22;10873;51.132;16.848;2023-07-13T00:23:13;29.10;67.50
21425;DHT22;10873;51.132;16.848;2023-07-13T00:25:40;29.10;66.80
21425;DHT22;10873;51.132;16.848;2023-07-13T00:28:06;29.00;66.70
21425;DHT22;10873;51.132;16.848;2023-07-13T00:30:32;29.10;66.70
21425;DHT22;10873;51.132;16.848;2023-07-13T00:32:58;29.00;66.70
21425;DHT22;10873;51.132;16.848;2023-07-13T00:35:29;29.10;66.70
21425;DHT22;10873;51.132;16.848;2023-07-13T00:37:57;29.10;66.60
21425;DHT22;10873;51.132;16.848;2023-07-13T00:40:23;29.10;66.60
21425;DHT22;10873;51.132;16.848;2023-07-13T00:42:51;29.00;66.40
21425;DHT22;10873;51.132;16.848;2023-07-13T00:48:24;29.10;66.40
21425;DHT22;10873;51.132;16.848;2023-07-13T00:50:54;29.10;66.40
21425;DHT22;10873;51.132;16.848;2023-07-13T00:53:22;29.00;66.30
21425;DHT22;10873;51.132;16.848;2023-07-13T00:55:51;29.00;66.30
21425;DHT22;10873;51.132;16.848;2023-07-13T00:58:17;29.10;66.40
21425;DHT22;10873;51.132;16.848;2023-07-13T01:00:44;29.10;66.50
21425;DHT22;10873;51.132;16.848;2023-07-13T01:03:11;29.10;66.50
21425;DHT22;10873;51.132;16.848;2023-07-13T01:05:37;29.00;66.40
21425;DHT22;10873;51.132;16.848;2023-07-13T01:08:05;29.00;66.40
21425;DHT22;10873;51.132;16.848;2023-07-13T01:10:33;29.00;66.40
21425;DHT22;10873;51.132;16.848;2023-07-13T01:13:05;29.00;66.40
21425;DHT22;10873;51.132;16.848;2023-07-13T01:15:36;29.00;66.40
21425;DHT22;10873;51.132;16.848;2023-07-13T01:18:03;29.00;66.40
21425;DHT22;10873;51.132;16.848;2023-07-13T01:20:30;29.00;66.40
21425;DHT22;10873;51.132;16.848;2023-07-13T01:22:57;29.00;66.30
21425;DHT22;10873;51.132;16.848;2023-07-13T01:25:25;29.00;66.30
21425;DHT22;10873;51.132;16.848;2023-07-13T01:27:51;29.00;66.30
21425;DHT22;10873;51.132;16.848;2023-07-13T01:30:17;29.00;66.30
21425;DHT22;10873;51.132;16.848;2023-07-13T01:32:43;29.00;66.30
21425;DHT22;10873;51.132;16.848;2023-07-13T01:35:09;29.00;66.20
21425;DHT22;10873;51.132;16.848;2023-07-13T01:37:38;29.00;66.20
21425;DHT22;10873;51.132;16.848;2023-07-13T01:40:07;29.00;66.20
21425;DHT22;10873;51.132;16.848;2023-07-13T01:42:34;29.00;66.20
21425;DHT22;10873;51.132;16.848;2023-07-13T01:45:00;29.00;66.10
21425;DHT22;10873;51.132;16.848;2023-07-13T01:47:26;29.00;66.10
21425;DHT22;10873;51.132;16.848;2023-07-13T01:49:53;29.00;66.10
21425;DHT22;10873;51.132;16.848;2023-07-13T01:52:19;29.00;66.10
21425;DHT22;10873;51.132;16.848;2023-07-13T01:54:45;29.00;66.00
21425;DHT22;10873;51.132;16.848;2023-07-13T01:57:13;29.00;66.00
21425;DHT22;10873;51.132;16.848;2023-07-13T01:59:39;29.00;65.90
21425;DHT22;10873;51.132;16.848;2023-07-13T02:02:05;29.00;65.80
21425;DHT22;10873;51.132;16.848;2023-07-13T02:04:31;29.00;65.70
21425;DHT22;10873;51.132;16.848;2023-07-13T02:06:57;28.90;65.60
21425;DHT22;10873;51.132;16.848;2023-07-13T02:09:23;29.00;65.60
21425;DHT22;10873;51.132;16.848;2023-07-13T02:11:49;29.00;65.50
21425;DHT22;10873;51.132;16.848;2023-07-13T02:14:17;29.00;65.50
21425;DHT22;10873;51.132;16.848;2023-07-13T02:16:42;29.00;65.40
21425;DHT22;10873;51.132;16.848;2023-07-13T02:19:09;29.00;65.30
21425;DHT22;10873;51.132;16.848;2023-07-13T02:21:35;29.00;65.30
21425;DHT22;10873;51.132;16.848;2023-07-13T02:24:01;29.00;65.20
21425;DHT22;10873;51.132;16.848;2023-07-13T02:26:27;28.90;65.10
21425;DHT22;10873;51.132;16.848;2023-07-13T02:28:53;28.90;65.20
21425;DHT22;10873;51.132;16.848;2023-07-13T02:31:21;29.00;65.30
21425;DHT22;10873;51.132;16.848;2023-07-13T02:33:47;28.90;65.20
21425;DHT22;10873;51.132;16.848;2023-07-13T02:36:13;29.00;65.30
21425;DHT22;10873;51.132;16.848;2023-07-13T02:38:42;28.90;65.30
21425;DHT22;10873;51.132;16.848;2023-07-13T02:41:08;28.90;65.30
21425;DHT22;10873;51.132;16.848;2023-07-13T02:43:35;28.90;65.30
21425;DHT22;10873;51.132;16.848;2023-07-13T02:46:01;28.90;65.30
21425;DHT22;10873;51.132;16.848;2023-07-13T02:48:34;28.90;65.30
21425;DHT22;10873;51.132;16.848;2023-07-13T02:51:00;28.90;65.30
21425;DHT22;10873;51.132;16.848;2023-07-13T02:53:27;28.90;65.30
21425;DHT22;10873;51.132;16.848;2023-07-13T02:55:53;28.90;65.20
21425;DHT22;10873;51.132;16.848;2023-07-13T02:58:19;28.90;65.20
21425;DHT22;10873;51.132;16.848;2023-07-13T03:00:46;28.90;65.20
21425;DHT22;10873;51.132;16.848;2023-07-13T03:03:12;28.90;65.20
21425;DHT22;10873;51.132;16.848;2023-07-13T03:05:43;28.90;65.20
21425;DHT22;10873;51.132;16.848;2023-07-13T03:08:09;28.90;65.20
21425;DHT22;10873;51.132;16.848;2023-07-13T03:10:35;28.90;65.20
21425;DHT22;10873;51.132;16.848;2023-07-13T03:13:01;28.90;65.20
21425;DHT22;10873;51.132;16.848;2023-07-13T03:15:27;28.90;65.20
21425;DHT22;10873;51.132;16.848;2023-07-13T03:17:54;28.80;64.90
21425;DHT22;10873;51.132;16.848;2023-07-13T03:20:20;28.80;64.80
21425;DHT22;10873;51.132;16.848;2023-07-13T03:22:47;28.80;64.70
21425;DHT22;10873;51.132;16.848;2023-07-13T03:25:13;28.70;64.80
21425;DHT22;10873;51.132;16.848;2023-07-13T03:27:39;28.70;65.00
21425;DHT22;10873;51.132;16.848;2023-07-13T03:30:06;28.60;64.90
21425;DHT22;10873;51.132;16.848;2023-07-13T03:32:33;28.60;65.00
21425;DHT22;10873;51.132;16.848;2023-07-13T03:34:59;28.60;65.00
21425;DHT22;10873;51.132;16.848;2023-07-13T03:37:25;28.60;64.90
21425;DHT22;10873;51.132;16.848;2023-07-13T03:39:52;28.60;64.90
21425;DHT22;10873;51.132;16.848;2023-07-13T03:42:18;28.60;64.90
21425;DHT22;10873;51.132;16.848;2023-07-13T03:44:44;28.60;64.90
21425;DHT22;10873;51.132;16.848;2023-07-13T03:47:16;28.60;64.90
21425;DHT22;10873;51.132;16.848;2023-07-13T03:49:42;28.60;64.90
21425;DHT22;10873;51.132;16.848;2023-07-13T03:52:08;28.60;65.00
21425;DHT22;10873;51.132;16.848;2023-07-13T03:54:34;28.60;65.10
21425;DHT22;10873;51.132;16.848;2023-07-13T03:57:02;28.60;65.20
21425;DHT22;10873;51.132;16.848;2023-07-13T03:59:28;28.60;65.30
21425;DHT22;10873;51.132;16.848;2023-07-13T04:01:54;28.60;66.00
21425;DHT22;10873;51.132;16.848;2023-07-13T04:04:20;28.60;67.20
21425;DHT22;10873;51.132;16.848;2023-07-13T04:06:47;28.60;67.20
21425;DHT22;10873;51.132;16.848;2023-07-13T04:09:12;28.60;67.40
21425;DHT22;10873;51.132;16.848;2023-07-13T04:11:39;28.60;67.30
21425;DHT22;10873;51.132;16.848;2023-07-13T04:14:06;28.60;67.30
21425;DHT22;10873;51.132;16.848;2023-07-13T04:16:32;28.60;67.20
21425;DHT22;10873;51.132;16.848;2023-07-13T04:18:58;28.60;67.10
21425;DHT22;10873;51.132;16.848;2023-07-13T04:21:28;28.60;67.00
21425;DHT22;10873;51.132;16.848;2023-07-13T04:23:54;28.70;66.90
21425;DHT22;10873;51.132;16.848;2023-07-13T04:26:21;28.70;66.70
21425;DHT22;10873;51.132;16.848;2023-07-13T04:28:48;28.70;66.40
21425;DHT22;10873;51.132;16.848;2023-07-13T04:31:16;28.70;66.50
21425;DHT22;10873;51.132;16.848;2023-07-13T04:33:42;28.80;66.50
21425;DHT22;10873;51.132;16.848;2023-07-13T04:36:09;28.80;66.40
21425;DHT22;10873;51.132;16.848;2023-07-13T04:38:35;28.80;66.30
21425;DHT22;10873;51.132;16.848;2023-07-13T04:41:04;28.90;66.30
21425;DHT22;10873;51.132;16.848;2023-07-13T04:43:31;28.90;66.20
21425;DHT22;10873;51.132;16.848;2023-07-13T04:46:03;28.90;66.10
21425;DHT22;10873;51.132;16.848;2023-07-13T04:48:30;29.00;66.00
21425;DHT22;10873;51.132;16.848;2023-07-13T04:50:57;29.00;65.90
21425;DHT22;10873;51.132;16.848;2023-07-13T04:53:24;29.00;65.70
21425;DHT22;10873;51.132;16.848;2023-07-13T04:55:50;29.00;65.60
21425;DHT22;10873;51.132;16.848;2023-07-13T04:58:16;29.10;65.50
21425;DHT22;10873;51.132;16.848;2023-07-13T05:00:42;29.10;65.50
21425;DHT22;10873;51.132;16.848;2023-07-13T05:03:08;29.10;65.40
21425;DHT22;10873;51.132;16.848;2023-07-13T05:05:36;29.10;65.40
21425;DHT22;10873;51.132;16.848;2023-07-13T05:08:02;29.10;65.30
21425;DHT22;10873;51.132;16.848;2023-07-13T05:10:28;29.10;65.30
21425;DHT22;10873;51.132;16.848;2023-07-13T05:12:54;29.10;65.30
21425;DHT22;10873;51.132;16.848;2023-07-13T05:15:21;29.10;65.30
21425;DHT22;10873;51.132;16.848;2023-07-13T05:17:48;29.10;66.10
21425;DHT22;10873;51.132;16.848;2023-07-13T05:20:14;29.00;65.30
21425;DHT22;10873;51.132;16.848;2023-07-13T05:22:42;29.00;65.30
21425;DHT22;10873;51.132;16.848;2023-07-13T05:25:08;29.00;65.30
21425;DHT22;10873;51.132;16.848;2023-07-13T05:27:35;29.00;65.40
21425;DHT22;10873;51.132;16.848;2023-07-13T05:30:02;29.00;65.40
21425;DHT22;10873;51.132;16.848;2023-07-13T05:32:28;29.00;65.30
21425;DHT22;10873;51.132;16.848;2023-07-13T05:34:55;29.00;65.30
21425;DHT22;10873;51.132;16.848;2023-07-13T05:37:21;29.00;65.30
21425;DHT22;10873;51.132;16.848;2023-07-13T05:39:48;29.00;65.30
21425;DHT22;10873;51.132;16.848;2023-07-13T05:42:14;29.00;65.30
21425;DHT22;10873;51.132;16.848;2023-07-13T05:44:40;29.00;65.30
21425;DHT22;10873;51.132;16.848;2023-07-13T05:47:06;29.00;65.30
21425;DHT22;10873;51.132;16.848;2023-07-13T05:49:33;28.90;65.80
21425;DHT22;10873;51.132;16.848;2023-07-13T05:51:58;29.00;67.40
21425;DHT22;10873;51.132;16.848;2023-07-13T05:54:25;29.00;68.30
21425;DHT22;10873;51.132;16.848;2023-07-13T05:56:52;29.00;68.70
21425;DHT22;10873;51.132;16.848;2023-07-13T05:59:18;29.00;69.00
21425;DHT22;10873;51.132;16.848;2023-07-13T06:01:44;29.00;68.80
21425;DHT22;10873;51.132;16.848;2023-07-13T06:04:10;29.10;69.10
21425;DHT22;10873;51.132;16.848;2023-07-13T06:06:36;29.20;71.00
21425;DHT22;10873;51.132;16.848;2023-07-13T06:09:02;29.30;71.50
21425;DHT22;10873;51.132;16.848;2023-07-13T06:11:28;29.50;72.10
21425;DHT22;10873;51.132;16.848;2023-07-13T06:13:57;29.80;73.40
21425;DHT22;10873;51.132;16.848;2023-07-13T06:16:23;30.20;75.20
21425;DHT22;10873;51.132;16.848;2023-07-13T06:18:49;30.60;75.90
21425;DHT22;10873;51.132;16.848;2023-07-13T06:21:17;31.00;76.00
21425;DHT22;10873;51.132;16.848;2023-07-13T06:23:45;31.30;75.80
21425;DHT22;10873;51.132;16.848;2023-07-13T06:26:13;31.30;74.00
21425;DHT22;10873;51.132;16.848;2023-07-13T06:28:39;31.30;73.50
21425;DHT22;10873;51.132;16.848;2023-07-13T06:31:08;31.40;78.30
21425;DHT22;10873;51.132;16.848;2023-07-13T06:33:34;31.40;75.30
21425;DHT22;10873;51.132;16.848;2023-07-13T06:36:01;31.40;73.60
21425;DHT22;10873;51.132;16.848;2023-07-13T06:38:27;31.40;77.60
21425;DHT22;10873;51.132;16.848;2023-07-13T06:40:53;31.60;79.70
21425;DHT22;10873;51.132;16.848;2023-07-13T06:43:19;31.70;76.80
21425;DHT22;10873;51.132;16.848;2023-07-13T06:45:48;31.70;75.60
21425;DHT22;10873;51.132;16.848;2023-07-13T06:48:18;31.70;78.50
21425;DHT22;10873;51.132;16.848;2023-07-13T06:50:44;31.80;78.60
21425;DHT22;10873;51.132;16.848;2023-07-13T06:53:12;31.90;76.30
21425;DHT22;10873;51.132;16.848;2023-07-13T06:55:38;31.80;75.00
21425;DHT22;10873;51.132;16.848;2023-07-13T06:58:04;31.90;78.70
21425;DHT22;10873;51.132;16.848;2023-07-13T07:00:30;32.00;77.20
21425;DHT22;10873;51.132;16.848;2023-07-13T07:02:57;32.00;75.00
21425;DHT22;10873;51.132;16.848;2023-07-13T07:05:24;31.90;77.70
21425;DHT22;10873;51.132;16.848;2023-07-13T07:07:51;32.10;79.20
21425;DHT22;10873;51.132;16.848;2023-07-13T07:10:18;32.20;76.00
21425;DHT22;10873;51.132;16.848;2023-07-13T07:12:44;32.10;74.70
21425;DHT22;10873;51.132;16.848;2023-07-13T07:15:10;32.10;77.50
21425;DHT22;10873;51.132;16.848;2023-07-13T07:17:37;32.30;76.90
21425;DHT22;10873;51.132;16.848;2023-07-13T07:20:03;32.30;74.60
21425;DHT22;10873;51.132;16.848;2023-07-13T07:22:31;32.20;76.20
21425;DHT22;10873;51.132;16.848;2023-07-13T07:24:57;32.30;78.00
21425;DHT22;10873;51.132;16.848;2023-07-13T07:27:23;32.40;75.30
21425;DHT22;10873;51.132;16.848;2023-07-13T07:29:49;32.40;74.40
21425;DHT22;10873;51.132;16.848;2023-07-13T07:32:16;32.40;76.80
21425;DHT22;10873;51.132;16.848;2023-07-13T07:34:42;32.50;76.90
21425;DHT22;10873;51.132;16.848;2023-07-13T07:37:11;32.50;74.20
21425;DHT22;10873;51.132;16.848;2023-07-13T07:39:38;32.50;72.50
21425;DHT22;10873;51.132;16.848;2023-07-13T07:42:05;32.50;75.60
21425;DHT22;10873;51.132;16.848;2023-07-13T07:44:31;32.70;75.30
21425;DHT22;10873;51.132;16.848;2023-07-13T07:46:58;32.70;72.60
21425;DHT22;10873;51.132;16.848;2023-07-13T07:49:24;32.60;72.80
21425;DHT22;10873;51.132;16.848;2023-07-13T07:51:51;32.70;75.00
21425;DHT22;10873;51.132;16.848;2023-07-13T07:54:17;32.70;72.50
21425;DHT22;10873;51.132;16.848;2023-07-13T07:56:45;32.60;71.50
21425;DHT22;10873;51.132;16.848;2023-07-13T07:59:10;32.60;74.00
21425;DHT22;10873;51.132;16.848;2023-07-13T08:01:37;32.80;74.10
21425;DHT22;10873;51.132;16.848;2023-07-13T08:04:03;32.90;71.70
21425;DHT22;10873;51.132;16.848;2023-07-13T08:06:31;32.90;70.20
21425;DHT22;10873;51.132;16.848;2023-07-13T08:08:59;32.90;72.80
21425;DHT22;10873;51.132;16.848;2023-07-13T08:11:25;33.00;72.40
21425;DHT22;10873;51.132;16.848;2023-07-13T08:13:52;33.10;70.60
21425;DHT22;10873;51.132;16.848;2023-07-13T08:16:18;33.00;69.50
21425;DHT22;10873;51.132;16.848;2023-07-13T08:18:44;33.10;71.60
21425;DHT22;10873;51.132;16.848;2023-07-13T08:21:10;33.10;70.40
21425;DHT22;10873;51.132;16.848;2023-07-13T08:23:36;33.10;69.20
21425;DHT22;10873;51.132;16.848;2023-07-13T08:26:03;33.10;71.00
21425;DHT22;10873;51.132;16.848;2023-07-13T08:28:31;33.20;71.40
21425;DHT22;10873;51.132;16.848;2023-07-13T08:31:01;33.20;69.50
21425;DHT22;10873;51.132;16.848;2023-07-13T08:33:27;33.20;69.60
21425;DHT22;10873;51.132;16.848;2023-07-13T08:35:53;33.10;70.10
21425;DHT22;10873;51.132;16.848;2023-07-13T08:38:19;33.10;70.60
21425;DHT22;10873;51.132;16.848;2023-07-13T08:40:50;33.00;70.20
21425;DHT22;10873;51.132;16.848;2023-07-13T08:43:20;32.90;69.80
21425;DHT22;10873;51.132;16.848;2023-07-13T08:45:52;32.80;69.30
21425;DHT22;10873;51.132;16.848;2023-07-13T08:48:25;32.80;68.90
21425;DHT22;10873;51.132;16.848;2023-07-13T08:50:56;32.70;68.20
21425;DHT22;10873;51.132;16.848;2023-07-13T08:53:25;32.60;67.50
21425;DHT22;10873;51.132;16.848;2023-07-13T08:55:58;32.60;66.70
21425;DHT22;10873;51.132;16.848;2023-07-13T08:58:25;32.50;66.20
21425;DHT22;10873;51.132;16.848;2023-07-13T09:00:58;32.50;65.70
21425;DHT22;10873;51.132;16.848;2023-07-13T09:03:31;32.40;65.60
21425;DHT22;10873;51.132;16.848;2023-07-13T09:06:01;32.40;65.10
21425;DHT22;10873;51.132;16.848;2023-07-13T09:08:36;32.30;64.60
21425;DHT22;10873;51.132;16.848;2023-07-13T09:11:16;32.30;64.50
21425;DHT22;10873;51.132;16.848;2023-07-13T09:13:51;32.30;64.40
21425;DHT22;10873;51.132;16.848;2023-07-13T09:16:22;32.30;64.20
21425;DHT22;10873;51.132;16.848;2023-07-13T09:18:52;32.20;63.70
21425;DHT22;10873;51.132;16.848;2023-07-13T09:21:23;32.20;63.90
21425;DHT22;10873;51.132;16.848;2023-07-13T09:23:53;32.20;63.90
21425;DHT22;10873;51.132;16.848;2023-07-13T09:26:23;32.10;63.80
21425;DHT22;10873;51.132;16.848;2023-07-13T09:28:52;32.10;63.90
21425;DHT22;10873;51.132;16.848;2023-07-13T09:31:23;32.10;63.60
21425;DHT22;10873;51.132;16.848;2023-07-13T09:33:51;32.00;63.50
21425;DHT22;10873;51.132;16.848;2023-07-13T09:36:20;32.00;63.40
21425;DHT22;10873;51.132;16.848;2023-07-13T09:38:48;32.00;63.20
21425;DHT22;10873;51.132;16.848;2023-07-13T09:41:20;31.90;63.10
21425;DHT22;10873;51.132;16.848;2023-07-13T09:44:07;32.00;63.00
21425;DHT22;10873;51.132;16.848;2023-07-13T09:46:39;31.90;62.80
21425;DHT22;10873;51.132;16.848;2023-07-13T09:49:08;31.90;62.90
21425;DHT22;10873;51.132;16.848;2023-07-13T09:51:35;31.90;63.00
21425;DHT22;10873;51.132;16.848;2023-07-13T09:54:01;31.80;62.90
21425;DHT22;10873;51.132;16.848;2023-07-13T09:56:29;31.80;62.90
21425;DHT22;10873;51.132;16.848;2023-07-13T09:58:55;31.80;62.80
21425;DHT22;10873;51.132;16.848;2023-07-13T10:01:32;31.70;62.70
21425;DHT22;10873;51.132;16.848;2023-07-13T10:03:59;31.80;62.80
21425;DHT22;10873;51.132;16.848;2023-07-13T10:06:27;31.70;62.60
21425;DHT22;10873;51.132;16.848;2023-07-13T10:08:56;31.70;62.60
21425;DHT22;10873;51.132;16.848;2023-07-13T10:11:26;31.70;62.50
21425;DHT22;10873;51.132;16.848;2023-07-13T10:13:57;31.70;62.50
21425;DHT22;10873;51.132;16.848;2023-07-13T10:16:26;31.60;62.30
21425;DHT22;10873;51.132;16.848;2023-07-13T10:18:56;31.60;62.20
21425;DHT22;10873;51.132;16.848;2023-07-13T10:21:28;31.60;62.10
21425;DHT22;10873;51.132;16.848;2023-07-13T10:24:00;31.50;61.90
21425;DHT22;10873;51.132;16.848;2023-07-13T10:26:32;31.50;61.90
21425;DHT22;10873;51.132;16.848;2023-07-13T10:29:02;31.50;61.80
21425;DHT22;10873;51.132;16.848;2023-07-13T10:31:30;31.40;61.60
21425;DHT22;10873;51.132;16.848;2023-07-13T10:33:56;31.40;61.50
21425;DHT22;10873;51.132;16.848;2023-07-13T10:36:35;31.40;61.50
21425;DHT22;10873;51.132;16.848;2023-07-13T10:39:05;31.40;61.30
21425;DHT22;10873;51.132;16.848;2023-07-13T10:41:35;31.40;61.30
21425;DHT22;10873;51.132;16.848;2023-07-13T10:44:02;31.30;61.20
21425;DHT22;10873;51.132;16.848;2023-07-13T10:46:30;31.30;61.10
21425;DHT22;10873;51.132;16.848;2023-07-13T10:48:59;31.30;60.90
21425;DHT22;10873;51.132;16.848;2023-07-13T10:51:27;31.30;60.70
21425;DHT22;10873;51.132;16.848;2023-07-13T10:54:20;31.20;60.60
21425;DHT22;10873;51.132;16.848;2023-07-13T10:56:50;31.20;60.50
21425;DHT22;10873;51.132;16.848;2023-07-13T10:59:18;31.20;60.40
21425;DHT22;10873;51.132;16.848;2023-07-13T11:01:55;31.10;60.40
21425;DHT22;10873;51.132;16.848;2023-07-13T11:04:22;31.10;60.40
21425;DHT22;10873;51.132;16.848;2023-07-13T11:06:52;31.10;60.30
21425;DHT22;10873;51.132;16.848;2023-07-13T11:09:36;31.10;61.00
21425;DHT22;10873;51.132;16.848;2023-07-13T11:12:09;31.10;60.10
21425;DHT22;10873;51.132;16.848;2023-07-13T11:14:43;31.00;60.10
21425;DHT22;10873;51.132;16.848;2023-07-13T11:17:35;31.10;60.10
21425;DHT22;10873;51.132;16.848;2023-07-13T11:20:19;31.00;60.00
21425;DHT22;10873;51.132;16.848;2023-07-13T11:22:48;31.00;60.00
21425;DHT22;10873;51.132;16.848;2023-07-13T11:25:27;31.00;60.10
21425;DHT22;10873;51.132;16.848;2023-07-13T11:28:07;31.00;60.10
21425;DHT22;10873;51.132;16.848;2023-07-13T11:30:41;30.90;60.00
21425;DHT22;10873;51.132;16.848;2023-07-13T11:33:16;30.90;60.00
21425;DHT22;10873;51.132;16.848;2023-07-13T11:35:53;30.90;60.00
21425;DHT22;10873;51.132;16.848;2023-07-13T11:38:29;30.90;60.20
21425;DHT22;10873;51.132;16.848;2023-07-13T11:41:02;30.90;60.10
21425;DHT22;10873;51.132;16.848;2023-07-13T11:43:29;30.90;60.20
21425;DHT22;10873;51.132;16.848;2023-07-13T11:45:55;30.90;60.30
21425;DHT22;10873;51.132;16.848;2023-07-13T11:48:24;30.80;60.30
21425;DHT22;10873;51.132;16.848;2023-07-13T11:50:56;30.80;60.40
21425;DHT22;10873;51.132;16.848;2023-07-13T11:53:25;30.80;60.40
21425;DHT22;10873;51.132;16.848;2023-07-13T11:55:52;30.80;60.50
21425;DHT22;10873;51.132;16.848;2023-07-13T11:58:23;30.80;60.60
21425;DHT22;10873;51.132;16.848;2023-07-13T12:00:50;30.70;60.70
21425;DHT22;10873;51.132;16.848;2023-07-13T12:03:19;30.70;60.70
21425;DHT22;10873;51.132;16.848;2023-07-13T12:05:57;30.70;60.80
21425;DHT22;10873;51.132;16.848;2023-07-13T12:08:23;30.70;60.80
21425;DHT22;10873;51.132;16.848;2023-07-13T12:10:56;30.70;60.90
21425;DHT22;10873;51.132;16.848;2023-07-13T12:13:24;30.70;61.00
21425;DHT22;10873;51.132;16.848;2023-07-13T12:15:52;30.70;61.00
21425;DHT22;10873;51.132;16.848;2023-07-13T12:18:22;30.70;61.00
21425;DHT22;10873;51.132;16.848;2023-07-13T12:20:50;30.70;61.00
21425;DHT22;10873;51.132;16.848;2023-07-13T12:23:23;30.70;61.00
21425;DHT22;10873;51.132;16.848;2023-07-13T12:25:51;30.70;61.20
21425;DHT22;10873;51.132;16.848;2023-07-13T12:28:21;30.60;61.10
21425;DHT22;10873;51.132;16.848;2023-07-13T12:30:49;30.60;61.90
21425;DHT22;10873;51.132;16.848;2023-07-13T12:33:27;30.60;61.20
21425;DHT22;10873;51.132;16.848;2023-07-13T12:35:54;30.60;61.20
21425;DHT22;10873;51.132;16.848;2023-07-13T12:38:21;30.60;61.20
21425;DHT22;10873;51.132;16.848;2023-07-13T12:40:51;30.60;61.30
21425;DHT22;10873;51.132;16.848;2023-07-13T12:43:20;30.60;61.30
21425;DHT22;10873;51.132;16.848;2023-07-13T12:45:59;30.60;61.40
21425;DHT22;10873;51.132;16.848;2023-07-13T12:48:26;30.60;61.40
21425;DHT22;10873;51.132;16.848;2023-07-13T12:50:54;30.60;61.50
21425;DHT22;10873;51.132;16.848;2023-07-13T12:53:22;30.60;61.50
21425;DHT22;10873;51.132;16.848;2023-07-13T12:55:52;30.60;61.50
21425;DHT22;10873;51.132;16.848;2023-07-13T12:58:26;30.60;61.60
21425;DHT22;10873;51.132;16.848;2023-07-13T13:00:55;30.60;61.60
21425;DHT22;10873;51.132;16.848;2023-07-13T13:03:28;30.60;61.60
21425;DHT22;10873;51.132;16.848;2023-07-13T13:05:58;30.60;61.60
21425;DHT22;10873;51.132;16.848;2023-07-13T13:08:25;30.60;61.60
21425;DHT22;10873;51.132;16.848;2023-07-13T13:10:51;30.60;61.70
21425;DHT22;10873;51.132;16.848;2023-07-13T13:13:17;30.50;61.60
21425;DHT22;10873;51.132;16.848;2023-07-13T13:15:43;30.60;61.70
21425;DHT22;10873;51.132;16.848;2023-07-13T13:18:15;30.50;61.60
21425;DHT22;10873;51.132;16.848;2023-07-13T13:20:43;30.50;61.60
21425;DHT22;10873;51.132;16.848;2023-07-13T13:23:12;30.50;61.60
21425;DHT22;10873;51.132;16.848;2023-07-13T13:25:39;30.50;62.40
21425;DHT22;10873;51.132;16.848;2023-07-13T13:28:05;30.50;61.60
21425;DHT22;10873;51.132;16.848;2023-07-13T13:30:31;30.50;61.60
21425;DHT22;10873;51.132;16.848;2023-07-13T13:32:57;30.50;61.60
21425;DHT22;10873;51.132;16.848;2023-07-13T13:35:23;30.50;61.60
21425;DHT22;10873;51.132;16.848;2023-07-13T13:37:50;30.50;61.60
21425;DHT22;10873;51.132;16.848;2023-07-13T13:40:20;30.50;61.60
21425;DHT22;10873;51.132;16.848;2023-07-13T13:42:47;30.50;61.50
21425;DHT22;10873;51.132;16.848;2023-07-13T13:45:13;30.60;61.60
21425;DHT22;10873;51.132;16.848;2023-07-13T13:47:40;30.60;61.70
21425;DHT22;10873;51.132;16.848;2023-07-13T13:50:12;30.50;61.40
21425;DHT22;10873;51.132;16.848;2023-07-13T13:52:40;30.50;61.40
21425;DHT22;10873;51.132;16.848;2023-07-13T13:55:13;30.50;61.30
21425;DHT22;10873;51.132;16.848;2023-07-13T13:57:39;30.50;60.90
21425;DHT22;10873;51.132;16.848;2023-07-13T14:00:07;30.50;60.70
21425;DHT22;10873;51.132;16.848;2023-07-13T14:02:34;30.50;60.30
21425;DHT22;10873;51.132;16.848;2023-07-13T14:05:02;30.50;60.10
21425;DHT22;10873;51.132;16.848;2023-07-13T14:07:28;30.50;59.90
21425;DHT22;10873;51.132;16.848;2023-07-13T14:09:58;30.50;59.80
21425;DHT22;10873;51.132;16.848;2023-07-13T14:12:25;30.50;59.70
21425;DHT22;10873;51.132;16.848;2023-07-13T14:14:54;30.50;59.50
21425;DHT22;10873;51.132;16.848;2023-07-13T14:17:23;30.50;59.60
21425;DHT22;10873;51.132;16.848;2023-07-13T14:19:50;30.50;59.60
21425;DHT22;10873;51.132;16.848;2023-07-13T14:22:17;30.50;59.70
21425;DHT22;10873;51.132;16.848;2023-07-13T14:24:44;30.50;59.80
21425;DHT22;10873;51.132;16.848;2023-07-13T14:27:11;30.50;60.00
21425;DHT22;10873;51.132;16.848;2023-07-13T14:29:39;30.50;60.10
21425;DHT22;10873;51.132;16.848;2023-07-13T14:32:10;30.50;60.20
21425;DHT22;10873;51.132;16.848;2023-07-13T14:34:36;30.40;60.30
21425;DHT22;10873;51.132;16.848;2023-07-13T14:37:02;30.40;60.30
21425;DHT22;10873;51.132;16.848;2023-07-13T14:39:30;30.40;60.40
21425;DHT22;10873;51.132;16.848;2023-07-13T14:41:57;30.40;60.50
21425;DHT22;10873;51.132;16.848;2023-07-13T14:44:25;30.40;60.50
21425;DHT22;10873;51.132;16.848;2023-07-13T14:46:53;30.40;60.60
21425;DHT22;10873;51.132;16.848;2023-07-13T14:49:28;30.40;60.60
21425;DHT22;10873;51.132;16.848;2023-07-13T14:51:55;30.40;60.70
21425;DHT22;10873;51.132;16.848;2023-07-13T14:54:24;30.40;60.80
21425;DHT22;10873;51.132;16.848;2023-07-13T14:56:50;30.40;60.80
21425;DHT22;10873;51.132;16.848;2023-07-13T14:59:16;30.40;60.40
21425;DHT22;10873;51.132;16.848;2023-07-13T15:01:45;30.30;59.90
21425;DHT22;10873;51.132;16.848;2023-07-13T15:04:13;30.30;59.40
21425;DHT22;10873;51.132;16.848;2023-07-13T15:06:53;30.30;58.90
21425;DHT22;10873;51.132;16.848;2023-07-13T15:09:20;30.30;58.40
21425;DHT22;10873;51.132;16.848;2023-07-13T15:11:46;30.30;57.90
21425;DHT22;10873;51.132;16.848;2023-07-13T15:14:12;30.30;57.30
21425;DHT22;10873;51.132;16.848;2023-07-13T15:16:38;30.30;56.80
21425;DHT22;10873;51.132;16.848;2023-07-13T15:19:04;30.30;56.50
21425;DHT22;10873;51.132;16.848;2023-07-13T15:21:31;30.30;56.10
21425;DHT22;10873;51.132;16.848;2023-07-13T15:24:00;30.30;55.80